sensor_id;sensor_type;location;lat;lon;timestamp;pressure;altitude;pressure_sealevel;temperature;humidity
42691;BME280;28306;55.744;37.578;2023-03-05T00:02:20;96860.75;;;24.78;19.84
42691;BME280;28306;55.744;37.578;2023-03-05T00:04:46;96869.34;;;24.80;19.80
42691;BME280;28306;55.744;37.578;2023-03-05T00:07:11;96867.41;;;24.81;20.08
42691;BME280;28306;55.744;37.578;2023-03-05T00:09:38;96869.34;;;24.80;19.75
42691;BME280;28306;55.744;37.578;2023-03-05T00:12:04;96871.75;;;24.82;19.92
42691;BME280;28306;55.744;37.578;2023-03-05T00:14:30;96864.69;;;24.81;19.89
42691;BME280;28306;55.744;37.578;2023-03-05T00:16:55;96873.34;;;24.83;20.07
42691;BME280;28306;55.744;37.578;2023-03-05T00:19:20;96869.47;;;24.84;20.02
42691;BME280;28306;55.744;37.578;2023-03-05T00:21:46;96872.19;;;24.84;19.92
42691;BME280;28306;55.744;37.578;2023-03-05T00:24:12;96864.84;;;24.85;19.69
42691;BME280;28306;55.744;37.578;2023-03-05T00:26:38;96871.06;;;24.85;19.74
42691;BME280;28306;55.744;37.578;2023-03-05T00:29:04;96869.13;;;24.86;19.75
42691;BME280;28306;55.744;37.578;2023-03-05T00:31:31;96872.69;;;24.86;19.79
42691;BME280;28306;55.744;37.578;2023-03-05T00:34:05;96873.47;;;24.87;19.82
42691;BME280;28306;55.744;37.578;2023-03-05T00:36:31;96866.91;;;24.88;19.68
42691;BME280;28306;55.744;37.578;2023-03-05T00:38:57;96869.63;;;24.88;19.93
42691;BME280;28306;55.744;37.578;2023-03-05T00:41:22;96864.53;;;24.86;19.85
42691;BME280;28306;55.744;37.578;2023-03-05T00:43:48;96875.06;;;24.88;19.72
42691;BME280;28306;55.744;37.578;2023-03-05T00:46:13;96870.75;;;24.87;19.78
42691;BME280;28306;55.744;37.578;2023-03-05T00:48:39;96869.97;;;24.86;19.68
42691;BME280;28306;55.744;37.578;2023-03-05T00:51:04;96864.97;;;24.88;19.77
42691;BME280;28306;55.744;37.578;2023-03-05T00:53:30;96868.47;;;24.89;19.67
42691;BME280;28306;55.744;37.578;2023-03-05T00:55:55;96873.59;;;24.90;19.73
42691;BME280;28306;55.744;37.578;2023-03-05T00:58:20;96872.78;;;24.90;19.86
42691;BME280;28306;55.744;37.578;2023-03-05T01:00:46;96871.69;;;24.91;19.64
42691;BME280;28306;55.744;37.578;2023-03-05T01:03:15;96864.63;;;24.90;19.76
42691;BME280;28306;55.744;37.578;2023-03-05T01:05:41;96873.59;;;24.90;19.63
42691;BME280;28306;55.744;37.578;2023-03-05T01:08:06;96865.44;;;24.90;19.87
42691;BME280;28306;55.744;37.578;2023-03-05T01:10:32;96861.91;;;24.90;19.72
42691;BME280;28306;55.744;37.578;2023-03-05T01:12:58;96869.75;;;24.91;19.93
42691;BME280;28306;55.744;37.578;2023-03-05T01:15:24;96871.34;;;24.92;19.77
42691;BME280;28306;55.744;37.578;2023-03-05T01:17:49;96871.34;;;24.92;19.65
42691;BME280;28306;55.744;37.578;2023-03-05T01:20:15;96858.53;;;24.93;19.76
42691;BME280;28306;55.744;37.578;2023-03-05T01:22:41;96869.41;;;24.93;19.72
42691;BME280;28306;55.744;37.578;2023-03-05T01:25:06;96867.47;;;24.93;19.73
42691;BME280;28306;55.744;37.578;2023-03-05T01:27:32;96870.19;;;24.93;19.56
42691;BME280;28306;55.744;37.578;2023-03-05T01:29:57;96881.06;;;24.93;19.66
42691;BME280;28306;55.744;37.578;2023-03-05T01:32:23;96873.75;;;24.94;19.66
42691;BME280;28306;55.744;37.578;2023-03-05T01:34:49;96864.75;;;24.93;19.70
42691;BME280;28306;55.744;37.578;2023-03-05T01:37:14;96867.16;;;24.95;19.83
42691;BME280;28306;55.744;37.578;2023-03-05T01:39:40;96867.16;;;24.95;19.70
42691;BME280;28306;55.744;37.578;2023-03-05T01:42:05;96870.69;;;24.95;19.60
42691;BME280;28306;55.744;37.578;2023-03-05T01:44:31;96870.69;;;24.95;19.55
42691;BME280;28306;55.744;37.578;2023-03-05T01:46:56;96861.38;;;24.96;19.52
42691;BME280;28306;55.744;37.578;2023-03-05T01:49:26;96868.75;;;24.96;19.79
42691;BME280;28306;55.744;37.578;2023-03-05T01:54:31;96869.19;;;24.98;19.71
42691;BME280;28306;55.744;37.578;2023-03-05T01:56:58;96865.38;;;24.99;19.52
42691;BME280;28306;55.744;37.578;2023-03-05T01:59:26;96872.41;;;25.00;19.60
42691;BME280;28306;55.744;37.578;2023-03-05T02:01:54;96860.25;;;24.97;19.44
42691;BME280;28306;55.744;37.578;2023-03-05T02:04:20;96867.28;;;24.98;19.58
42691;BME280;28306;55.744;37.578;2023-03-05T02:06:48;96864.56;;;24.98;19.62
42691;BME280;28306;55.744;37.578;2023-03-05T02:09:13;96866.47;;;24.98;19.48
42691;BME280;28306;55.744;37.578;2023-03-05T02:11:39;96872.75;;;24.98;19.72
42691;BME280;28306;55.744;37.578;2023-03-05T02:14:05;96868.88;;;24.99;19.60
42691;BME280;28306;55.744;37.578;2023-03-05T02:16:32;96870.03;;;24.98;19.68
42691;BME280;28306;55.744;37.578;2023-03-05T02:19:03;96866.47;;;24.98;19.59
42691;BME280;28306;55.744;37.578;2023-03-05T02:21:35;96867.28;;;24.98;19.82
42691;BME280;28306;55.744;37.578;2023-03-05T02:24:01;96869.19;;;24.98;19.67
42691;BME280;28306;55.744;37.578;2023-03-05T02:26:26;96864.56;;;24.98;19.49
42691;BME280;28306;55.744;37.578;2023-03-05T02:28:53;96867.28;;;24.98;19.64
42691;BME280;28306;55.744;37.578;2023-03-05T02:31:22;96870.03;;;24.98;19.56
42691;BME280;28306;55.744;37.578;2023-03-05T02:33:48;96866.16;;;24.99;19.56
42691;BME280;28306;55.744;37.578;2023-03-05T02:36:14;96863.09;;;25.01;19.38
42691;BME280;28306;55.744;37.578;2023-03-05T02:38:41;96867.75;;;25.00;19.45
42691;BME280;28306;55.744;37.578;2023-03-05T02:41:07;96866.97;;;25.00;19.42
42691;BME280;28306;55.744;37.578;2023-03-05T02:43:34;96860.72;;;24.99;19.70
42691;BME280;28306;55.744;37.578;2023-03-05T02:45:59;96860.72;;;24.99;19.43
42691;BME280;28306;55.744;37.578;2023-03-05T02:48:25;96864.25;;;25.00;19.42
42691;BME280;28306;55.744;37.578;2023-03-05T02:50:50;96859.59;;;25.00;19.55
42691;BME280;28306;55.744;37.578;2023-03-05T02:53:17;96854.16;;;25.00;19.41
42691;BME280;28306;55.744;37.578;2023-03-05T02:55:44;96854.16;;;25.00;19.50
42691;BME280;28306;55.744;37.578;2023-03-05T02:58:10;96855.75;;;25.02;19.51
42691;BME280;28306;55.744;37.578;2023-03-05T03:00:35;96854.94;;;25.01;19.43
42691;BME280;28306;55.744;37.578;2023-03-05T03:03:01;96848.72;;;25.00;19.43
42691;BME280;28306;55.744;37.578;2023-03-05T03:05:26;96831.88;;;24.86;19.50
42691;BME280;28306;55.744;37.578;2023-03-05T03:07:52;96854.16;;;25.00;19.41
42691;BME280;28306;55.744;37.578;2023-03-05T03:10:17;96845.66;;;25.02;19.51
42691;BME280;28306;55.744;37.578;2023-03-05T03:12:43;96842.16;;;25.02;19.38
42691;BME280;28306;55.744;37.578;2023-03-05T03:15:10;96841.00;;;25.03;19.61
42691;BME280;28306;55.744;37.578;2023-03-05T03:17:36;96844.50;;;25.03;19.44
42691;BME280;28306;55.744;37.578;2023-03-05T03:20:03;96844.50;;;25.03;19.77
42691;BME280;28306;55.744;37.578;2023-03-05T03:22:29;96842.59;;;25.04;19.47
42691;BME280;28306;55.744;37.578;2023-03-05T03:24:55;96845.31;;;25.04;19.77
42691;BME280;28306;55.744;37.578;2023-03-05T03:27:21;96846.91;;;25.05;19.51
42691;BME280;28306;55.744;37.578;2023-03-05T03:29:46;96841.47;;;25.05;19.47
42691;BME280;28306;55.744;37.578;2023-03-05T03:32:11;96846.56;;;25.06;19.62
42691;BME280;28306;55.744;37.578;2023-03-05T03:34:37;96845.78;;;25.06;19.60
42691;BME280;28306;55.744;37.578;2023-03-05T03:37:02;96849.28;;;25.06;19.52
42691;BME280;28306;55.744;37.578;2023-03-05T03:39:28;96848.50;;;25.06;19.56
42691;BME280;28306;55.744;37.578;2023-03-05T03:41:53;96847.38;;;25.07;19.53
42691;BME280;28306;55.744;37.578;2023-03-05T03:44:19;96845.78;;;25.06;19.41
42691;BME280;28306;55.744;37.578;2023-03-05T03:46:45;96849.28;;;25.06;19.41
42691;BME280;28306;55.744;37.578;2023-03-05T03:49:15;96843.50;;;25.08;19.60
42691;BME280;28306;55.744;37.578;2023-03-05T03:51:41;96847.38;;;25.07;19.43
42691;BME280;28306;55.744;37.578;2023-03-05T03:54:06;96843.50;;;25.08;19.50
42691;BME280;28306;55.744;37.578;2023-03-05T03:56:32;96833.78;;;25.07;19.48
42691;BME280;28306;55.744;37.578;2023-03-05T03:58:57;96842.72;;;25.07;19.67
42691;BME280;28306;55.744;37.578;2023-03-05T04:01:23;96841.59;;;25.08;19.68
42691;BME280;28306;55.744;37.578;2023-03-05T04:03:48;96844.31;;;25.08;19.60
42691;BME280;28306;55.744;37.578;2023-03-05T04:06:14;96841.25;;;25.10;19.36
42691;BME280;28306;55.744;37.578;2023-03-05T04:08:39;96838.53;;;25.10;19.48
42691;BME280;28306;55.744;37.578;2023-03-05T04:11:05;96839.66;;;25.09;19.65
42691;BME280;28306;55.744;37.578;2023-03-05T04:13:31;96844.00;;;25.10;19.55
42691;BME280;28306;55.744;37.578;2023-03-05T04:15:56;96836.63;;;25.10;19.49
42691;BME280;28306;55.744;37.578;2023-03-05T04:18:22;96847.16;;;25.12;19.34
42691;BME280;28306;55.744;37.578;2023-03-05T04:20:47;96838.22;;;25.11;19.47
42691;BME280;28306;55.744;37.578;2023-03-05T04:23:13;96842.50;;;25.12;19.60
42691;BME280;28306;55.744;37.578;2023-03-05T04:25:38;96847.16;;;25.12;19.57
42691;BME280;28306;55.744;37.578;2023-03-05T04:28:04;96839.44;;;25.14;19.50
42691;BME280;28306;55.744;37.578;2023-03-05T04:30:29;96837.88;;;25.13;19.35
42691;BME280;28306;55.744;37.578;2023-03-05T04:32:56;96837.88;;;25.13;19.24
42691;BME280;28306;55.744;37.578;2023-03-05T04:35:21;96833.56;;;25.12;19.61
42691;BME280;28306;55.744;37.578;2023-03-05T04:37:47;96841.72;;;25.12;19.39
42691;BME280;28306;55.744;37.578;2023-03-05T04:40:12;96836.28;;;25.12;19.41
42691;BME280;28306;55.744;37.578;2023-03-05T04:42:38;96838.66;;;25.13;19.33
42691;BME280;28306;55.744;37.578;2023-03-05T04:45:03;96842.16;;;25.14;19.26
42691;BME280;28306;55.744;37.578;2023-03-05T04:47:29;96846.50;;;25.15;19.40
42691;BME280;28306;55.744;37.578;2023-03-05T04:49:55;96847.28;;;25.15;19.53
42691;BME280;28306;55.744;37.578;2023-03-05T04:52:20;96846.50;;;25.15;19.47
42691;BME280;28306;55.744;37.578;2023-03-05T04:54:45;96846.50;;;25.15;19.71
42691;BME280;28306;55.744;37.578;2023-03-05T04:57:11;96854.31;;;25.16;19.38
42691;BME280;28306;55.744;37.578;2023-03-05T04:59:36;96852.38;;;25.17;19.43
42691;BME280;28306;55.744;37.578;2023-03-05T05:02:02;96857.81;;;25.17;19.27
42691;BME280;28306;55.744;37.578;2023-03-05T05:04:27;96856.69;;;25.18;19.63
42691;BME280;28306;55.744;37.578;2023-03-05T05:06:57;96860.22;;;25.18;19.38
42691;BME280;28306;55.744;37.578;2023-03-05T05:09:23;96855.59;;;25.19;19.14
42691;BME280;28306;55.744;37.578;2023-03-05T05:11:48;96857.16;;;25.20;19.27
42691;BME280;28306;55.744;37.578;2023-03-05T05:14:14;96860.69;;;25.21;19.27
42691;BME280;28306;55.744;37.578;2023-03-05T05:16:39;96866.91;;;25.21;19.55
42691;BME280;28306;55.744;37.578;2023-03-05T05:19:05;96859.53;;;25.22;19.26
42691;BME280;28306;55.744;37.578;2023-03-05T05:21:30;96863.06;;;25.22;19.45
42691;BME280;28306;55.744;37.578;2023-03-05T05:23:56;96865.47;;;25.24;19.51
42691;BME280;28306;55.744;37.578;2023-03-05T05:26:21;96858.09;;;25.24;19.25
42691;BME280;28306;55.744;37.578;2023-03-05T05:28:47;96867.03;;;25.25;19.31
42691;BME280;28306;55.744;37.578;2023-03-05T05:31:14;96858.09;;;25.24;19.26
42691;BME280;28306;55.744;37.578;2023-03-05T05:33:40;96862.41;;;25.25;19.10
42691;BME280;28306;55.744;37.578;2023-03-05T05:36:06;96865.91;;;25.26;19.35
42691;BME280;28306;55.744;37.578;2023-03-05T05:38:32;96867.50;;;25.27;19.27
42691;BME280;28306;55.744;37.578;2023-03-05T05:41:04;96874.53;;;25.28;19.30
42691;BME280;28306;55.744;37.578;2023-03-05T05:43:30;96869.94;;;25.28;19.11
42691;BME280;28306;55.744;37.578;2023-03-05T05:46:02;96876.16;;;25.29;19.25
42691;BME280;28306;55.744;37.578;2023-03-05T05:48:29;96871.50;;;25.29;19.44
42691;BME280;28306;55.744;37.578;2023-03-05T05:50:55;96880.16;;;25.31;19.27
42691;BME280;28306;55.744;37.578;2023-03-05T05:53:20;96880.16;;;25.31;19.42
42691;BME280;28306;55.744;37.578;2023-03-05T05:55:46;96884.44;;;25.32;19.20
42691;BME280;28306;55.744;37.578;2023-03-05T05:58:11;96884.44;;;25.32;19.13
42691;BME280;28306;55.744;37.578;2023-03-05T06:00:37;96879.81;;;25.33;19.33
42691;BME280;28306;55.744;37.578;2023-03-05T06:03:03;96881.38;;;25.34;19.25
42691;BME280;28306;55.744;37.578;2023-03-05T06:05:28;96884.09;;;25.34;19.04
42691;BME280;28306;55.744;37.578;2023-03-05T06:07:53;96879.47;;;25.34;19.15
42691;BME280;28306;55.744;37.578;2023-03-05T06:10:19;96883.78;;;25.35;19.25
42691;BME280;28306;55.744;37.578;2023-03-05T06:12:44;96877.53;;;25.35;19.09
42691;BME280;28306;55.744;37.578;2023-03-05T06:15:10;96885.72;;;25.35;19.28
42691;BME280;28306;55.744;37.578;2023-03-05T06:17:35;96884.56;;;25.36;19.41
42691;BME280;28306;55.744;37.578;2023-03-05T06:20:01;96885.38;;;25.36;19.35
42691;BME280;28306;55.744;37.578;2023-03-05T06:22:28;96888.09;;;25.36;19.15
42691;BME280;28306;55.744;37.578;2023-03-05T06:24:53;96892.38;;;25.38;19.19
42691;BME280;28306;55.744;37.578;2023-03-05T06:27:19;96888.09;;;25.36;19.19
42691;BME280;28306;55.744;37.578;2023-03-05T06:29:44;96892.38;;;25.38;19.15
42691;BME280;28306;55.744;37.578;2023-03-05T06:32:10;96891.25;;;25.39;19.07
42691;BME280;28306;55.744;37.578;2023-03-05T06:34:35;96891.25;;;25.39;19.11
42691;BME280;28306;55.744;37.578;2023-03-05T06:37:01;96897.50;;;25.39;19.38
42691;BME280;28306;55.744;37.578;2023-03-05T06:39:26;96894.44;;;25.41;19.08
42691;BME280;28306;55.744;37.578;2023-03-05T06:41:52;96892.53;;;25.41;19.06
42691;BME280;28306;55.744;37.578;2023-03-05T06:44:17;96889.47;;;25.43;18.98
42691;BME280;28306;55.744;37.578;2023-03-05T06:46:42;96903.53;;;25.45;19.18
42691;BME280;28306;55.744;37.578;2023-03-05T06:49:08;96900.03;;;25.44;19.00
42691;BME280;28306;55.744;37.578;2023-03-05T06:51:35;96902.41;;;25.46;19.23
42691;BME280;28306;55.744;37.578;2023-03-05T06:54:02;96905.13;;;25.46;19.08
42691;BME280;28306;55.744;37.578;2023-03-05T06:56:28;96905.13;;;25.46;19.07
42691;BME280;28306;55.744;37.578;2023-03-05T06:58:54;96913.31;;;25.46;19.03
42691;BME280;28306;55.744;37.578;2023-03-05T07:01:19;96920.31;;;25.47;19.32
42691;BME280;28306;55.744;37.578;2023-03-05T07:03:48;96910.59;;;25.46;18.91
42691;BME280;28306;55.744;37.578;2023-03-05T07:06:14;96916.81;;;25.46;18.99
42691;BME280;28306;55.744;37.578;2023-03-05T07:08:40;96918.75;;;25.46;19.03
42691;BME280;28306;55.744;37.578;2023-03-05T07:11:09;96931.22;;;25.47;19.10
42691;BME280;28306;55.744;37.578;2023-03-05T07:13:35;96928.81;;;25.45;19.10
42691;BME280;28306;55.744;37.578;2023-03-05T07:16:03;96933.16;;;25.46;19.11
42691;BME280;28306;55.744;37.578;2023-03-05T07:18:29;96930.09;;;25.48;18.98
42691;BME280;28306;55.744;37.578;2023-03-05T07:20:54;96928.16;;;25.48;19.23
42691;BME280;28306;55.744;37.578;2023-03-05T07:23:20;96938.25;;;25.48;18.93
42691;BME280;28306;55.744;37.578;2023-03-05T07:25:45;96931.69;;;25.49;18.98
42691;BME280;28306;55.744;37.578;2023-03-05T07:28:11;96937.13;;;25.49;19.24
42691;BME280;28306;55.744;37.578;2023-03-05T07:30:36;96942.56;;;25.49;18.90
42691;BME280;28306;55.744;37.578;2023-03-05T07:33:02;96947.22;;;25.48;19.18
42691;BME280;28306;55.744;37.578;2023-03-05T07:35:27;96948.03;;;25.49;18.96
42691;BME280;28306;55.744;37.578;2023-03-05T07:37:53;96962.09;;;25.51;19.06
42691;BME280;28306;55.744;37.578;2023-03-05T07:40:20;96958.56;;;25.50;19.05
42691;BME280;28306;55.744;37.578;2023-03-05T07:42:46;96957.75;;;25.50;19.17
42691;BME280;28306;55.744;37.578;2023-03-05T07:45:21;96961.31;;;25.50;19.04
42691;BME280;28306;55.744;37.578;2023-03-05T07:47:46;96969.47;;;25.50;18.83
42691;BME280;28306;55.744;37.578;2023-03-05T07:50:12;96978.41;;;25.51;18.84
42691;BME280;28306;55.744;37.578;2023-03-05T07:52:37;96974.91;;;25.50;18.89
42691;BME280;28306;55.744;37.578;2023-03-05T07:55:03;96981.94;;;25.51;18.84
42691;BME280;28306;55.744;37.578;2023-03-05T07:57:28;96980.03;;;25.52;18.89
42691;BME280;28306;55.744;37.578;2023-03-05T07:59:54;96983.88;;;25.51;18.83
42691;BME280;28306;55.744;37.578;2023-03-05T08:02:19;96987.84;;;25.53;18.99
42691;BME280;28306;55.744;37.578;2023-03-05T08:04:45;96996.81;;;25.54;18.95
42691;BME280;28306;55.744;37.578;2023-03-05T08:07:12;96994.09;;;25.54;19.15
42691;BME280;28306;55.744;37.578;2023-03-05T08:09:38;96999.19;;;25.56;18.81
42691;BME280;28306;55.744;37.578;2023-03-05T08:12:04;96999.97;;;25.56;18.89
42691;BME280;28306;55.744;37.578;2023-03-05T08:14:29;97003.19;;;25.58;18.96
42691;BME280;28306;55.744;37.578;2023-03-05T08:16:55;97012.94;;;25.59;19.08
42691;BME280;28306;55.744;37.578;2023-03-05T08:19:20;97011.81;;;25.60;18.93
42691;BME280;28306;55.744;37.578;2023-03-05T08:21:49;97019.66;;;25.62;18.86
42691;BME280;28306;55.744;37.578;2023-03-05T08:24:14;97022.38;;;25.62;19.03
42691;BME280;28306;55.744;37.578;2023-03-05T08:26:40;97022.38;;;25.62;18.88
42691;BME280;28306;55.744;37.578;2023-03-05T08:29:06;97034.03;;;25.62;18.77
42691;BME280;28306;55.744;37.578;2023-03-05T08:31:32;97034.03;;;25.62;18.76
42691;BME280;28306;55.744;37.578;2023-03-05T08:33:59;97041.09;;;25.63;18.87
42691;BME280;28306;55.744;37.578;2023-03-05T08:36:25;97036.44;;;25.64;18.83
42691;BME280;28306;55.744;37.578;2023-03-05T08:38:50;97041.88;;;25.64;18.98
42691;BME280;28306;55.744;37.578;2023-03-05T08:41:16;97041.09;;;25.63;18.89
42691;BME280;28306;55.744;37.578;2023-03-05T08:43:42;97050.88;;;25.64;18.96
42691;BME280;28306;55.744;37.578;2023-03-05T08:46:08;97052.78;;;25.64;19.08
42691;BME280;28306;55.744;37.578;2023-03-05T08:48:34;97060.94;;;25.64;18.81
42691;BME280;28306;55.744;37.578;2023-03-05T08:51:12;97063.66;;;25.64;18.74
42691;BME280;28306;55.744;37.578;2023-03-05T08:53:39;97059.03;;;25.64;18.89
42691;BME280;28306;55.744;37.578;2023-03-05T08:56:04;97070.72;;;25.65;18.93
42691;BME280;28306;55.744;37.578;2023-03-05T08:58:30;97076.94;;;25.65;19.09
42691;BME280;28306;55.744;37.578;2023-03-05T09:00:56;97077.75;;;25.66;18.88
42691;BME280;28306;55.744;37.578;2023-03-05T09:03:21;97087.50;;;25.67;18.75
42691;BME280;28306;55.744;37.578;2023-03-05T09:05:47;97081.72;;;25.68;18.74
42691;BME280;28306;55.744;37.578;2023-03-05T09:08:12;97088.78;;;25.69;18.85
42691;BME280;28306;55.744;37.578;2023-03-05T09:10:39;97086.84;;;25.70;18.89
42691;BME280;28306;55.744;37.578;2023-03-05T09:13:05;97098.53;;;25.70;19.03
42691;BME280;28306;55.744;37.578;2023-03-05T09:15:30;97095.81;;;25.70;18.77
42691;BME280;28306;55.744;37.578;2023-03-05T09:17:55;97093.91;;;25.71;19.05
42691;BME280;28306;55.744;37.578;2023-03-05T09:20:22;97098.53;;;25.70;18.84
42691;BME280;28306;55.744;37.578;2023-03-05T09:22:47;97102.84;;;25.71;19.00
42691;BME280;28306;55.744;37.578;2023-03-05T09:25:13;97105.56;;;25.71;18.84
42691;BME280;28306;55.744;37.578;2023-03-05T09:27:38;97114.53;;;25.72;18.99
42691;BME280;28306;55.744;37.578;2023-03-05T09:30:04;97116.13;;;25.73;18.87
42691;BME280;28306;55.744;37.578;2023-03-05T09:32:30;97117.41;;;25.76;18.89
42691;BME280;28306;55.744;37.578;2023-03-05T09:34:56;97124.75;;;25.75;18.87
42691;BME280;28306;55.744;37.578;2023-03-05T09:37:21;97130.22;;;25.75;18.92
42691;BME280;28306;55.744;37.578;2023-03-05T09:39:47;97129.09;;;25.76;18.73
42691;BME280;28306;55.744;37.578;2023-03-05T09:52:19;97157.94;;;25.77;19.00
42691;BME280;28306;55.744;37.578;2023-03-05T09:54:46;97152.94;;;25.79;18.99
42691;BME280;28306;55.744;37.578;2023-03-05T09:57:17;97166.22;;;25.81;18.74
42691;BME280;28306;55.744;37.578;2023-03-05T10:02:16;97165.91;;;25.82;18.97
42691;BME280;28306;55.744;37.578;2023-03-05T10:04:44;97176.47;;;25.84;19.14
42691;BME280;28306;55.744;37.578;2023-03-05T10:07:14;97175.34;;;25.85;18.79
42691;BME280;28306;55.744;37.578;2023-03-05T10:14:38;97188.97;;;25.85;18.84
42691;BME280;28306;55.744;37.578;2023-03-05T10:19:37;97204.97;;;25.86;19.02
42691;BME280;28306;55.744;37.578;2023-03-05T10:27:07;97216.31;;;25.88;19.09
42691;BME280;28306;55.744;37.578;2023-03-05T10:29:42;97218.59;;;25.86;19.06
42691;BME280;28306;55.744;37.578;2023-03-05T10:32:21;97233.00;;;25.87;18.86
42691;BME280;28306;55.744;37.578;2023-03-05T10:37:59;97244.69;;;25.87;19.17
42691;BME280;28306;55.744;37.578;2023-03-05T10:41:06;97243.56;;;25.88;19.09
42691;BME280;28306;55.744;37.578;2023-03-05T10:43:05;97249.00;;;25.88;18.93
42691;BME280;28306;55.744;37.578;2023-03-05T10:45:35;97250.94;;;25.88;18.88
42691;BME280;28306;55.744;37.578;2023-03-05T10:48:15;97259.91;;;25.88;19.13
42691;BME280;28306;55.744;37.578;2023-03-05T10:50:46;97250.47;;;25.86;19.05
42691;BME280;28306;55.744;37.578;2023-03-05T10:53:19;97259.59;;;25.90;19.12
42691;BME280;28306;55.744;37.578;2023-03-05T10:55:48;97264.25;;;25.89;18.96
42691;BME280;28306;55.744;37.578;2023-03-05T10:58:15;97274.00;;;25.90;19.02
42691;BME280;28306;55.744;37.578;2023-03-05T11:01:26;97280.25;;;25.91;19.14
42691;BME280;28306;55.744;37.578;2023-03-05T11:04:24;97278.66;;;25.90;19.01
42691;BME280;28306;55.744;37.578;2023-03-05T11:06:12;97292.28;;;25.90;18.96
42691;BME280;28306;55.744;37.578;2023-03-05T11:08:38;97296.94;;;25.89;19.07
42691;BME280;28306;55.744;37.578;2023-03-05T11:13:56;97308.63;;;25.90;19.13
42691;BME280;28306;55.744;37.578;2023-03-05T11:17:20;97312.94;;;25.91;19.14
42691;BME280;28306;55.744;37.578;2023-03-05T11:21:39;97322.38;;;25.94;19.61
42691;BME280;28306;55.744;37.578;2023-03-05T11:24:09;97323.19;;;25.94;19.27
42691;BME280;28306;55.744;37.578;2023-03-05T11:26:51;97337.28;;;25.96;19.58
42691;BME280;28306;55.744;37.578;2023-03-05T11:29:21;97337.28;;;25.96;19.83
42691;BME280;28306;55.744;37.578;2023-03-05T11:31:47;97344.34;;;25.97;19.71
42691;BME280;28306;55.744;37.578;2023-03-05T11:36:42;97351.38;;;25.98;19.66
42691;BME280;28306;55.744;37.578;2023-03-05T11:39:09;97356.84;;;25.98;19.45
42691;BME280;28306;55.744;37.578;2023-03-05T11:46:50;97374.00;;;25.99;19.65
42691;BME280;28306;55.744;37.578;2023-03-05T11:49:19;97375.56;;;26.00;19.53
42691;BME280;28306;55.744;37.578;2023-03-05T11:54:33;97384.06;;;25.98;19.50
42691;BME280;28306;55.744;37.578;2023-03-05T11:57:02;97387.63;;;25.99;19.36
42691;BME280;28306;55.744;37.578;2023-03-05T11:59:29;97394.97;;;25.98;19.23
42691;BME280;28306;55.744;37.578;2023-03-05T12:01:57;97398.53;;;25.99;19.34
42691;BME280;28306;55.744;37.578;2023-03-05T12:04:23;97402.03;;;25.99;19.19
42691;BME280;28306;55.744;37.578;2023-03-05T12:09:42;97419.19;;;26.00;19.32
42691;BME280;28306;55.744;37.578;2023-03-05T12:12:30;97421.91;;;26.00;19.38
42691;BME280;28306;55.744;37.578;2023-03-05T12:17:30;97424.63;;;26.00;19.07
42691;BME280;28306;55.744;37.578;2023-03-05T12:19:59;97432.78;;;26.00;19.31
42691;BME280;28306;55.744;37.578;2023-03-05T12:22:33;97429.28;;;25.99;19.08
42691;BME280;28306;55.744;37.578;2023-03-05T12:27:45;97435.53;;;26.00;19.42
42691;BME280;28306;55.744;37.578;2023-03-05T12:30:29;97440.97;;;26.00;19.33
42691;BME280;28306;55.744;37.578;2023-03-05T12:33:02;97448.81;;;26.01;19.39
42691;BME280;28306;55.744;37.578;2023-03-05T12:35:38;97458.59;;;26.02;19.36
42691;BME280;28306;55.744;37.578;2023-03-05T12:38:08;97461.31;;;26.02;19.35
42691;BME280;28306;55.744;37.578;2023-03-05T12:40:37;97462.91;;;26.03;19.44
42691;BME280;28306;55.744;37.578;2023-03-05T12:43:04;97467.25;;;26.04;19.23
42691;BME280;28306;55.744;37.578;2023-03-05T12:45:30;97472.69;;;26.04;19.32
42691;BME280;28306;55.744;37.578;2023-03-05T12:52:54;97475.41;;;26.04;19.48
42691;BME280;28306;55.744;37.578;2023-03-05T12:58:52;97494.97;;;26.06;19.46
42691;BME280;28306;55.744;37.578;2023-03-05T13:03:34;97494.97;;;26.06;19.38
42691;BME280;28306;55.744;37.578;2023-03-05T13:06:01;97499.63;;;26.06;19.44
42691;BME280;28306;55.744;37.578;2023-03-05T13:08:34;97497.69;;;26.06;19.29
42691;BME280;28306;55.744;37.578;2023-03-05T13:11:02;97503.94;;;26.07;19.34
42691;BME280;28306;55.744;37.578;2023-03-05T13:13:30;97511.31;;;26.06;19.33
42691;BME280;28306;55.744;37.578;2023-03-05T13:15:57;97510.19;;;26.07;19.35
42691;BME280;28306;55.744;37.578;2023-03-05T13:18:24;97519.97;;;26.08;19.45
42691;BME280;28306;55.744;37.578;2023-03-05T13:21:03;97519.97;;;26.08;19.34
42691;BME280;28306;55.744;37.578;2023-03-05T13:23:29;97520.78;;;26.09;19.54
42691;BME280;28306;55.744;37.578;2023-03-05T13:25:56;97534.41;;;26.09;19.60
42691;BME280;28306;55.744;37.578;2023-03-05T13:28:22;97540.16;;;26.07;19.55
42691;BME280;28306;55.744;37.578;2023-03-05T13:30:52;97545.28;;;26.09;19.71
42691;BME280;28306;55.744;37.578;2023-03-05T13:33:20;97544.19;;;26.10;19.47
42691;BME280;28306;55.744;37.578;2023-03-05T13:35:46;97551.53;;;26.10;19.55
42691;BME280;28306;55.744;37.578;2023-03-05T13:38:18;97562.13;;;26.11;19.38
42691;BME280;28306;55.744;37.578;2023-03-05T13:40:45;97562.94;;;26.12;19.41
42691;BME280;28306;55.744;37.578;2023-03-05T13:43:24;97566.44;;;26.12;19.47
42691;BME280;28306;55.744;37.578;2023-03-05T13:45:53;97570.78;;;26.13;19.57
42691;BME280;28306;55.744;37.578;2023-03-05T13:48:20;97574.31;;;26.14;19.29
42691;BME280;28306;55.744;37.578;2023-03-05T13:50:46;97572.69;;;26.13;19.68
42691;BME280;28306;55.744;37.578;2023-03-05T13:55:51;97585.19;;;26.14;19.41
42691;BME280;28306;55.744;37.578;2023-03-05T14:01:08;97594.16;;;26.14;19.33